Time;durP1;ratioP1;P1;durP2;ratioP2;P2;SDS_P1;SDS_P2;PMS_P1;PMS_P2;Temp;Humidity;BMP_temperature;BMP_pressure;BME280_temperature;BME280_humidity;BME280_pressure;Samples;Min_cycle;Max_cycle;Signal;HPM_P1;HPM_P2
2021/04/17 00:02:17;;;;;;;9.00;8.30;;;6.40;76.90;;;;;;10538881;28;20214;-83
2021/04/17 00:07:19;;;;;;;8.10;7.40;;;6.40;77.40;;;;;;10527852;28;20268;-82
2021/04/17 00:12:21;;;;;;;9.30;8.50;;;6.30;78.00;;;;;;10531823;28;20233;-82
2021/04/17 00:17:23;;;;;;;9.13;8.33;;;6.30;77.80;;;;;;10514135;28;20209;-82
2021/04/17 00:22:25;;;;;;;8.60;7.90;;;6.20;77.60;;;;;;10530844;28;20641;-83
2021/04/17 00:27:27;;;;;;;9.50;8.70;;;6.20;78.00;;;;;;10527563;28;20236;-82
2021/04/17 00:32:29;;;;;;;9.33;8.53;;;6.10;78.20;;;;;;10494698;28;20200;-82
2021/04/17 00:37:31;;;;;;;9.20;8.40;;;6.00;78.70;;;;;;10511735;28;20246;-83
2021/04/17 00:42:33;;;;;;;9.80;9.00;;;5.90;79.00;;;;;;10521106;28;20200;-82
2021/04/17 00:47:35;;;;;;;9.93;9.13;;;6.00;79.50;;;;;;10510997;28;20212;-83
2021/04/17 00:52:43;;;;;;;9.20;8.40;;;6.00;79.40;;;;;;10512984;28;20196;-82
2021/04/17 00:57:45;;;;;;;9.80;9.00;;;5.90;79.60;;;;;;10510865;28;20285;-82
2021/04/17 01:02:59;;;;;;;10.50;9.70;;;6.00;79.60;;;;;;10487411;28;20208;-83
2021/04/17 01:08:05;;;;;;;10.10;9.20;;;6.00;80.40;;;;;;10509597;28;20212;-82
2021/04/17 01:13:09;;;;;;;10.67;9.77;;;6.00;79.50;;;;;;10508323;28;20208;-82
2021/04/17 01:18:12;;;;;;;9.50;8.57;;;6.00;79.40;;;;;;10507454;28;20491;-82
2021/04/17 01:23:19;;;;;;;10.17;8.93;;;6.00;79.70;;;;;;10509571;28;20185;-82
2021/04/17 01:28:23;;;;;;;11.13;10.10;;;6.00;79.90;;;;;;10512309;28;20215;-82
2021/04/17 01:33:27;;;;;;;10.70;9.80;;;6.00;80.00;;;;;;10510109;28;20212;-83
2021/04/17 01:38:34;;;;;;;10.30;9.37;;;6.00;80.60;;;;;;10513434;28;20582;-83
2021/04/17 01:43:36;;;;;;;10.80;9.90;;;6.00;81.00;;;;;;10516866;28;20192;-82
2021/04/17 01:48:39;;;;;;;10.73;9.83;;;6.10;80.90;;;;;;10519746;28;20212;-82
2021/04/17 01:53:43;;;;;;;10.80;9.80;;;6.00;81.00;;;;;;10488828;28;20227;-82
2021/04/17 01:58:46;;;;;;;11.80;10.70;;;6.10;80.80;;;;;;10507054;28;20304;-83
2021/04/17 02:03:48;;;;;;;11.10;10.10;;;6.00;81.10;;;;;;10505889;28;20568;-82
2021/04/17 02:08:50;;;;;;;11.53;10.40;;;6.00;81.10;;;;;;10508560;28;20228;-83
2021/04/17 02:13:52;;;;;;;11.53;10.10;;;6.10;81.20;;;;;;10515448;28;20202;-82
2021/04/17 02:18:58;;;;;;;11.57;10.47;;;6.00;81.40;;;;;;10499122;28;20243;-82
2021/04/17 02:24:01;;;;;;;10.80;9.90;;;6.10;81.40;;;;;;10512395;28;20204;-82
2021/04/17 02:29:04;;;;;;;10.83;9.93;;;6.00;81.40;;;;;;10513055;28;20704;-82
2021/04/17 02:34:06;;;;;;;11.60;10.50;;;6.00;81.10;;;;;;10494841;28;20196;-81
2021/04/17 02:39:08;;;;;;;12.83;11.70;;;6.00;81.50;;;;;;10511572;28;20231;-82
2021/04/17 02:44:10;;;;;;;11.57;10.50;;;6.00;81.60;;;;;;10495668;28;20207;-82
2021/04/17 02:49:12;;;;;;;12.10;11.00;;;5.90;81.60;;;;;;10496072;28;20212;-82
2021/04/17 02:54:14;;;;;;;12.13;11.13;;;5.90;81.70;;;;;;10497269;28;20201;-82
2021/04/17 02:59:16;;;;;;;12.47;11.37;;;5.90;82.00;;;;;;10516164;28;20240;-82
2021/04/17 03:04:18;;;;;;;11.63;10.53;;;5.90;82.20;;;;;;10499147;28;20200;-83
2021/04/17 03:09:20;;;;;;;12.87;11.67;;;5.90;82.60;;;;;;10497540;28;20217;-81
2021/04/17 03:14:22;;;;;;;13.30;12.00;;;5.80;82.40;;;;;;10511034;28;20189;-81
2021/04/17 03:19:24;;;;;;;13.03;11.77;;;5.80;82.70;;;;;;10510966;28;20220;-82
2021/04/17 03:24:26;;;;;;;12.47;11.33;;;5.80;82.60;;;;;;10513985;28;20630;-82
2021/04/17 03:29:28;;;;;;;11.90;10.90;;;5.70;82.60;;;;;;10513613;28;20216;-82
2021/04/17 03:34:30;;;;;;;13.63;12.20;;;5.70;82.80;;;;;;10515691;28;20205;-82
2021/04/17 03:39:31;;;;;;;12.07;10.97;;;5.70;83.20;;;;;;10497013;28;20310;-82
2021/04/17 03:44:34;;;;;;;11.93;10.90;;;5.70;83.20;;;;;;10495033;28;20196;-83
2021/04/17 03:49:35;;;;;;;12.23;11.13;;;5.70;83.40;;;;;;10511726;28;20212;-83
2021/04/17 03:54:37;;;;;;;12.90;11.77;;;5.70;83.20;;;;;;10514768;28;20669;-82
2021/04/17 03:59:40;;;;;;;11.73;10.70;;;5.70;83.30;;;;;;10517921;28;20595;-82
2021/04/17 04:04:41;;;;;;;12.47;11.33;;;5.70;83.40;;;;;;10515105;28;20197;-83
2021/04/17 04:09:43;;;;;;;13.07;11.87;;;5.60;83.60;;;;;;10511816;28;20201;-82
2021/04/17 04:14:45;;;;;;;13.43;12.23;;;5.60;84.70;;;;;;10513630;28;20191;-83
2021/04/17 04:19:47;;;;;;;12.17;10.97;;;5.60;84.10;;;;;;10507727;28;20224;-81
2021/04/17 04:24:49;;;;;;;12.80;11.70;;;5.50;84.50;;;;;;10521129;28;20203;-83
2021/04/17 04:29:52;;;;;;;13.00;11.80;;;5.50;84.70;;;;;;10511061;28;20212;-83
2021/04/17 04:34:53;;;;;;;14.27;13.07;;;5.50;85.10;;;;;;10531123;28;20306;-83
2021/04/17 04:39:55;;;;;;;14.53;13.23;;;5.50;85.30;;;;;;10543151;28;20216;-82
2021/04/17 04:44:57;;;;;;;15.30;13.80;;;5.50;85.50;;;;;;10540349;28;20200;-82
2021/04/17 04:49:59;;;;;;;15.17;13.67;;;5.40;85.30;;;;;;10541056;28;20215;-82
2021/04/17 04:55:01;;;;;;;14.73;13.40;;;5.40;85.80;;;;;;10540785;28;20245;-82
2021/04/17 05:00:06;;;;;;;15.50;13.90;;;5.40;86.20;;;;;;10541026;28;20216;-82
2021/04/17 05:05:08;;;;;;;15.13;13.83;;;5.50;86.50;;;;;;10541582;28;20196;-82
2021/04/17 05:10:11;;;;;;;15.10;13.80;;;5.50;86.30;;;;;;10542496;28;20675;-82
2021/04/17 05:15:13;;;;;;;15.17;13.60;;;5.60;86.70;;;;;;10542293;28;20216;-82
2021/04/17 05:20:15;;;;;;;15.50;14.20;;;5.70;87.00;;;;;;10548470;28;20218;-82
2021/04/17 05:25:17;;;;;;;16.63;15.03;;;5.80;87.10;;;;;;10526958;28;20291;-81
2021/04/17 05:30:21;;;;;;;16.20;14.50;;;5.90;86.70;;;;;;10539946;28;20247;-81
2021/04/17 05:35:22;;;;;;;15.90;14.50;;;6.10;86.60;;;;;;10540195;28;20691;-82
2021/04/17 05:40:24;;;;;;;15.60;14.10;;;6.20;86.40;;;;;;10523274;28;20215;-82
2021/04/17 05:45:28;;;;;;;15.63;14.27;;;6.40;86.30;;;;;;10546233;28;20226;-82
2021/04/17 05:50:29;;;;;;;15.27;13.87;;;6.60;85.70;;;;;;10533727;28;20558;-82
2021/04/17 05:55:31;;;;;;;16.20;14.70;;;6.70;85.30;;;;;;10538303;28;20224;-82
2021/04/17 06:00:34;;;;;;;15.33;14.00;;;6.90;85.20;;;;;;10538302;28;20239;-81
2021/04/17 06:05:35;;;;;;;15.13;13.80;;;7.00;84.30;;;;;;10533643;28;20691;-82
2021/04/17 06:10:37;;;;;;;15.00;13.43;;;7.20;83.90;;;;;;10548062;28;20203;-81
2021/04/17 06:15:40;;;;;;;15.40;13.90;;;7.40;83.30;;;;;;10533789;28;20211;-82
2021/04/17 06:20:42;;;;;;;15.37;13.97;;;7.50;83.90;;;;;;10531247;28;20714;-82
2021/04/17 06:25:43;;;;;;;14.73;13.23;;;7.80;81.90;;;;;;10547553;28;20265;-83
2021/04/17 06:30:46;;;;;;;15.33;13.83;;;7.90;80.80;;;;;;10548210;28;20192;-84
2021/04/17 06:35:48;;;;;;;16.77;15.13;;;8.00;80.60;;;;;;10548285;28;20208;-83
2021/04/17 06:40:51;;;;;;;16.00;14.40;;;8.10;80.30;;;;;;10530599;28;20314;-83
2021/04/17 06:45:54;;;;;;;15.70;14.20;;;8.30;79.20;;;;;;10530424;28;20590;-84
2021/04/17 06:50:56;;;;;;;15.77;14.30;;;8.50;78.90;;;;;;10490270;28;20199;-83
2021/04/17 06:55:59;;;;;;;16.37;14.77;;;8.60;77.60;;;;;;10505118;28;20216;-84
2021/04/17 07:01:02;;;;;;;15.33;13.83;;;8.60;77.70;;;;;;10506689;28;20716;-83
2021/04/17 07:06:06;;;;;;;15.87;14.43;;;8.80;77.50;;;;;;10503263;28;20274;-83
2021/04/17 07:11:08;;;;;;;15.70;14.30;;;8.80;76.80;;;;;;10504175;28;20192;-84
2021/04/17 07:16:12;;;;;;;16.67;15.07;;;8.80;77.20;;;;;;10503334;28;20213;-83
2021/04/17 07:21:26;;;;;;;16.90;15.20;;;8.90;77.00;;;;;;10485845;28;20216;-84
2021/04/17 07:26:30;;;;;;;15.70;14.20;;;9.10;76.70;;;;;;10504955;28;20642;-83
2021/04/17 07:31:34;;;;;;;15.90;14.40;;;9.30;75.60;;;;;;10505291;28;20229;-84
2021/04/17 07:36:52;;;;;;;14.90;13.47;;;9.40;74.70;;;;;;10509706;28;20223;-83
2021/04/17 07:41:59;;;;;;;16.00;14.60;;;9.40;75.10;;;;;;10504768;28;20240;-83
2021/04/17 07:47:02;;;;;;;14.33;12.40;;;9.60;75.00;;;;;;10504907;28;20213;-84
2021/04/17 07:52:09;;;;;;;14.50;13.00;;;9.90;72.80;;;;;;10536033;28;20584;-83
2021/04/17 07:57:12;;;;;;;13.77;12.10;;;10.20;70.80;;;;;;10530620;28;20223;-84
2021/04/17 08:02:20;;;;;;;13.47;12.17;;;10.70;69.70;;;;;;10536005;28;20683;-84
2021/04/17 08:07:22;;;;;;;13.83;12.40;;;11.00;68.00;;;;;;10522804;28;20311;-85
2021/04/17 08:12:25;;;;;;;13.67;12.27;;;11.20;67.20;;;;;;10543111;28;20263;-83
2021/04/17 08:17:34;;;;;;;13.17;11.87;;;11.40;66.50;;;;;;10546387;28;20216;-83
2021/04/17 08:22:37;;;;;;;14.27;12.77;;;11.50;63.50;;;;;;10549204;28;20237;-84
2021/04/17 08:27:39;;;;;;;13.07;11.70;;;11.60;62.60;;;;;;10555821;28;20215;-83
2021/04/17 08:32:43;;;;;;;11.67;10.57;;;11.50;63.40;;;;;;10554296;28;20246;-83
2021/04/17 08:38:09;;;;;;;15.07;10.90;;;11.50;64.30;;;;;;10527512;28;20233;-83
2021/04/17 08:43:44;;;;;;;11.93;10.93;;;11.50;64.50;;;;;;10543364;28;20719;-84
2021/04/17 08:49:00;;;;;;;11.33;9.90;;;11.70;63.80;;;;;;10542053;28;20208;-83
2021/04/17 08:54:20;;;;;;;8.93;8.00;;;11.80;62.20;;;;;;10540452;28;20188;-83
2021/04/17 08:59:26;;;;;;;9.10;8.30;;;12.10;61.20;;;;;;10557835;22;20224;-80
2021/04/17 09:04:30;;;;;;;9.27;8.37;;;12.20;59.40;;;;;;10517299;28;20208;-81
2021/04/17 09:09:36;;;;;;;8.87;8.00;;;12.10;59.30;;;;;;10519771;28;20691;-79
2021/04/17 09:15:01;;;;;;;9.80;8.80;;;12.10;59.50;;;;;;10513177;28;20330;-79
2021/04/17 09:20:05;;;;;;;10.87;9.77;;;12.20;59.10;;;;;;10532661;28;20724;-79
2021/04/17 09:25:08;;;;;;;9.40;8.60;;;12.20;58.70;;;;;;10539123;28;20214;-79
2021/04/17 09:30:14;;;;;;;9.37;8.47;;;12.10;59.10;;;;;;10543784;28;20211;-80
2021/04/17 09:35:19;;;;;;;9.90;8.90;;;12.20;58.80;;;;;;10523077;28;20295;-80
2021/04/17 09:40:30;;;;;;;9.93;9.00;;;12.30;59.70;;;;;;10521570;28;20576;-79
2021/04/17 09:45:38;;;;;;;9.07;8.17;;;12.70;59.00;;;;;;10515138;28;20674;-79
2021/04/17 09:50:41;;;;;;;9.80;8.80;;;13.10;58.80;;;;;;10518227;28;20302;-79
2021/04/17 09:55:54;;;;;;;9.50;8.50;;;13.00;57.50;;;;;;10514608;28;20215;-80
2021/04/17 10:01:11;;;;;;;9.50;8.70;;;12.90;58.50;;;;;;10499078;28;20735;-78
2021/04/17 10:06:30;;;;;;;9.57;8.67;;;12.90;58.00;;;;;;10513452;28;20553;-78
2021/04/17 10:11:32;;;;;;;7.53;6.73;;;12.80;57.70;;;;;;10509147;28;20244;-79
2021/04/17 10:16:36;;;;;;;7.37;6.60;;;12.60;57.00;;;;;;10507479;28;20283;-78
2021/04/17 10:21:39;;;;;;;7.60;6.90;;;12.60;56.40;;;;;;10504818;28;20307;-78
2021/04/17 10:27:01;;;;;;;7.43;6.73;;;12.60;56.70;;;;;;10512182;28;20704;-79
2021/04/17 10:32:04;;;;;;;7.03;6.43;;;12.80;57.30;;;;;;10517581;28;20192;-80
2021/04/17 10:37:09;;;;;;;6.20;5.60;;;12.90;56.40;;;;;;10511012;28;20261;-80
2021/04/17 10:42:11;;;;;;;6.03;5.60;;;13.00;56.40;;;;;;10513604;28;20311;-79
2021/04/17 10:47:13;;;;;;;7.00;6.40;;;13.00;55.30;;;;;;10514727;28;20282;-80
2021/04/17 10:52:29;;;;;;;6.20;5.70;;;13.00;54.40;;;;;;10530469;28;20279;-78
2021/04/17 10:57:43;;;;;;;6.80;6.10;;;12.80;55.30;;;;;;10491476;28;20242;-78
2021/04/17 11:02:50;;;;;;;7.00;5.87;;;12.80;54.80;;;;;;10508979;28;20651;-78
2021/04/17 11:07:59;;;;;;;6.13;5.53;;;12.90;55.30;;;;;;10525413;28;20226;-78
2021/04/17 11:13:03;;;;;;;5.97;5.47;;;13.10;53.80;;;;;;10527647;28;20196;-79
2021/04/17 11:18:14;;;;;;;6.37;5.87;;;13.10;54.80;;;;;;10519857;28;20218;-79
2021/04/17 11:23:30;;;;;;;5.70;5.20;;;13.20;54.70;;;;;;10518714;28;20203;-79
2021/04/17 11:28:32;;;;;;;5.63;5.17;;;13.40;53.60;;;;;;10502858;28;20562;-80
2021/04/17 11:33:34;;;;;;;6.37;4.90;;;13.40;53.40;;;;;;10505444;28;20265;-80
2021/04/17 11:38:36;;;;;;;4.60;4.20;;;13.40;53.00;;;;;;10505095;28;20213;-79
2021/04/17 11:43:38;;;;;;;5.30;4.90;;;13.40;54.80;;;;;;10524463;28;20295;-80
2021/04/17 11:48:41;;;;;;;4.43;3.97;;;13.40;52.90;;;;;;10529584;28;20212;-79
2021/04/17 11:53:46;;;;;;;5.13;4.73;;;13.20;52.70;;;;;;10523472;28;20200;-80
2021/04/17 11:58:48;;;;;;;6.10;5.40;;;13.20;52.50;;;;;;10522241;28;20232;-79
2021/04/17 12:03:51;;;;;;;5.10;4.70;;;13.20;52.30;;;;;;10520827;28;20426;-79
2021/04/17 12:08:53;;;;;;;4.97;4.47;;;13.20;52.20;;;;;;10518443;28;20263;-80
2021/04/17 12:13:59;;;;;;;5.40;4.90;;;13.20;50.90;;;;;;10516722;28;20464;-80
2021/04/17 12:19:03;;;;;;;4.93;4.53;;;13.20;50.70;;;;;;10517395;28;20216;-80
2021/04/17 12:24:07;;;;;;;5.57;5.10;;;13.20;51.80;;;;;;10492961;28;20196;-79
2021/04/17 12:29:09;;;;;;;5.00;4.60;;;13.20;52.20;;;;;;10489815;28;20317;-78
2021/04/17 12:34:11;;;;;;;4.80;4.40;;;13.50;52.10;;;;;;10529064;28;20195;-79
2021/04/17 12:39:13;;;;;;;5.37;4.00;;;13.80;50.90;;;;;;10501226;28;20672;-80
2021/04/17 12:44:15;;;;;;;3.93;3.63;;;13.70;49.90;;;;;;10509653;28;20204;-80
2021/04/17 12:49:19;;;;;;;4.17;3.80;;;13.50;51.30;;;;;;10524131;28;20560;-80
2021/04/17 12:54:22;;;;;;;3.60;3.30;;;13.50;51.70;;;;;;10538900;28;20291;-78
2021/04/17 12:59:23;;;;;;;3.90;3.60;;;13.50;50.30;;;;;;10509698;28;20259;-81
2021/04/17 13:04:25;;;;;;;4.00;3.70;;;13.60;50.30;;;;;;10523184;28;20679;-80
2021/04/17 13:09:32;;;;;;;4.77;4.30;;;13.50;50.50;;;;;;10502680;28;20220;-79
2021/04/17 13:14:34;;;;;;;3.53;3.23;;;13.60;50.20;;;;;;10503195;28;20196;-79
2021/04/17 13:19:43;;;;;;;4.57;4.00;;;13.70;49.70;;;;;;10499993;28;20273;-80
2021/04/17 13:24:46;;;;;;;3.77;3.57;;;13.60;49.00;;;;;;10495595;28;20280;-80
2021/04/17 13:29:48;;;;;;;6.03;3.70;;;13.60;48.90;;;;;;10494704;28;20223;-79
2021/04/17 13:34:50;;;;;;;4.40;4.00;;;13.50;50.10;;;;;;10496346;28;20203;-79
2021/04/17 13:39:53;;;;;;;4.00;3.70;;;13.40;49.90;;;;;;10494863;28;20212;-80
2021/04/17 13:44:54;;;;;;;4.17;3.80;;;13.40;48.30;;;;;;10478113;28;20260;-80
2021/04/17 13:49:56;;;;;;;3.80;3.50;;;13.40;49.40;;;;;;10494824;28;20361;-80
2021/04/17 13:54:59;;;;;;;4.20;3.80;;;13.50;49.70;;;;;;10496124;28;20238;-81
2021/04/17 14:00:00;;;;;;;3.67;3.37;;;13.70;48.90;;;;;;10495800;28;20737;-81
2021/04/17 14:05:05;;;;;;;3.70;3.40;;;13.80;47.30;;;;;;10498454;28;20219;-79
2021/04/17 14:10:12;;;;;;;3.63;3.30;;;13.90;47.50;;;;;;10503805;28;20800;-80
2021/04/17 14:15:14;;;;;;;4.00;3.20;;;13.90;48.00;;;;;;10502679;28;20216;-80
2021/04/17 14:20:16;;;;;;;3.60;3.30;;;13.80;48.50;;;;;;10473196;28;20224;-80
2021/04/17 14:25:21;;;;;;;3.37;3.07;;;13.70;47.40;;;;;;10491192;28;20299;-80
2021/04/17 14:30:25;;;;;;;3.10;2.90;;;13.60;47.30;;;;;;10487062;28;20209;-80
2021/04/17 14:35:29;;;;;;;3.63;3.33;;;13.50;47.90;;;;;;10519202;28;20200;-80
2021/04/17 14:40:32;;;;;;;3.27;3.07;;;13.50;47.80;;;;;;10491328;28;20232;-79
2021/04/17 14:45:36;;;;;;;3.87;3.30;;;13.50;48.70;;;;;;10505972;28;20250;-79
2021/04/17 14:50:38;;;;;;;3.57;3.23;;;13.50;49.10;;;;;;10503695;28;20201;-79
2021/04/17 14:55:42;;;;;;;3.67;3.37;;;13.40;48.30;;;;;;10505037;28;20786;-80
2021/04/17 15:00:46;;;;;;;2.97;2.77;;;13.40;48.90;;;;;;10504617;28;20684;-80
2021/04/17 15:05:48;;;;;;;4.73;3.13;;;13.30;50.90;;;;;;10504385;28;20188;-80
2021/04/17 15:11:12;;;;;;;3.40;3.20;;;13.30;50.20;;;;;;10529830;22;20231;-85
2021/04/17 15:16:18;;;;;;;3.20;3.00;;;13.30;49.80;;;;;;10494301;28;20192;-86
2021/04/17 15:21:22;;;;;;;3.30;3.00;;;13.30;50.50;;;;;;10497339;28;20228;-82
2021/04/17 15:26:28;;;;;;;4.10;3.43;;;13.10;50.70;;;;;;10493101;28;20197;-82
2021/04/17 15:31:34;;;;;;;3.87;3.53;;;12.90;51.20;;;;;;10488820;28;20216;-84
2021/04/17 15:36:37;;;;;;;5.13;3.43;;;12.90;50.70;;;;;;10488400;28;20656;-86
2021/04/17 15:41:43;;;;;;;3.70;3.40;;;12.70;52.20;;;;;;10485103;28;20225;-84
2021/04/17 15:46:48;;;;;;;4.00;3.50;;;12.70;52.20;;;;;;10482263;28;20203;-86
2021/04/17 15:51:52;;;;;;;3.17;2.90;;;12.80;53.10;;;;;;10500450;28;20216;-82
2021/04/17 15:57:04;;;;;;;3.30;3.00;;;12.80;52.10;;;;;;10483974;28;20196;-83
2021/04/17 16:18:05;;;;;;;3.50;3.20;;;12.60;54.40;;;;;;10513017;28;20227;-84
2021/04/17 16:23:21;;;;;;;3.50;3.23;;;12.70;54.70;;;;;;10518322;28;20238;-83
2021/04/17 16:28:33;;;;;;;4.20;3.80;;;12.60;54.20;;;;;;10503300;28;20235;-85
2021/04/17 16:33:35;;;;;;;3.60;3.40;;;12.40;54.20;;;;;;10513238;28;20273;-84
2021/04/17 16:38:37;;;;;;;3.50;2.73;;;12.10;55.40;;;;;;10507250;28;20302;-83
2021/04/17 16:43:42;;;;;;;3.40;3.20;;;12.00;56.00;;;;;;10508394;28;20216;-83
2021/04/17 16:48:47;;;;;;;3.13;2.80;;;11.90;54.90;;;;;;10502647;28;20184;-84
2021/04/17 16:53:49;;;;;;;4.00;3.70;;;11.80;55.30;;;;;;10509554;28;20270;-84
2021/04/17 16:58:54;;;;;;;3.60;3.20;;;11.70;56.00;;;;;;10511235;28;20212;-84
2021/04/17 17:03:56;;;;;;;4.07;3.70;;;11.60;56.90;;;;;;10493995;28;20571;-83
2021/04/17 17:08:58;;;;;;;4.50;3.40;;;11.50;57.40;;;;;;10485405;28;20200;-84
2021/04/17 17:14:00;;;;;;;4.13;3.73;;;11.50;58.10;;;;;;10495067;28;20231;-84
2021/04/17 17:19:02;;;;;;;3.70;3.10;;;11.40;57.90;;;;;;10482625;28;20221;-84
2021/04/17 17:24:07;;;;;;;4.17;3.87;;;11.40;58.30;;;;;;10484365;28;20240;-84
2021/04/17 17:29:10;;;;;;;3.27;3.07;;;11.30;59.40;;;;;;10507135;28;20715;-84
2021/04/17 17:34:12;;;;;;;3.80;3.50;;;11.30;58.60;;;;;;10477305;28;20303;-84
2021/04/17 17:39:16;;;;;;;4.07;3.77;;;11.20;59.20;;;;;;10507082;28;20213;-84
2021/04/17 17:44:25;;;;;;;4.77;4.37;;;11.20;61.10;;;;;;10479458;28;20225;-84
2021/04/17 17:49:30;;;;;;;4.80;4.40;;;11.00;63.70;;;;;;10460247;28;20197;-84
2021/04/17 17:54:34;;;;;;;4.40;4.10;;;10.90;66.40;;;;;;10439656;28;20217;-83
2021/04/17 17:59:36;;;;;;;4.60;4.20;;;10.70;68.20;;;;;;10469251;28;20221;-84
2021/04/17 18:04:39;;;;;;;5.27;4.77;;;10.50;68.70;;;;;;10504717;28;20610;-83
2021/04/17 18:09:41;;;;;;;5.60;5.10;;;10.40;68.60;;;;;;10497298;28;20192;-84
2021/04/17 18:14:44;;;;;;;4.90;4.50;;;10.30;69.60;;;;;;10497085;28;20196;-84
2021/04/17 18:19:47;;;;;;;5.33;4.83;;;10.20;69.30;;;;;;10485407;28;20231;-84
2021/04/17 18:24:50;;;;;;;5.87;4.80;;;9.90;71.30;;;;;;10517169;28;20207;-86
2021/04/17 18:29:55;;;;;;;5.33;4.90;;;9.90;72.70;;;;;;10514471;28;20192;-85
2021/04/17 18:34:58;;;;;;;5.60;5.10;;;9.80;72.90;;;;;;10493282;28;20239;-86
2021/04/17 18:40:01;;;;;;;5.03;4.40;;;9.90;71.40;;;;;;10477022;28;20228;-84
2021/04/17 18:45:18;;;;;;;5.37;4.90;;;9.80;71.90;;;;;;10490393;28;20691;-82
2021/04/17 18:50:23;;;;;;;4.37;3.97;;;9.80;72.10;;;;;;10468846;28;20263;-84
2021/04/17 18:55:28;;;;;;;5.37;4.87;;;9.70;71.60;;;;;;10498612;28;20217;-84
2021/04/17 19:00:47;;;;;;;5.63;4.87;;;9.70;72.00;;;;;;10492021;28;20224;-82
2021/04/17 19:05:54;;;;;;;5.63;5.13;;;9.60;72.40;;;;;;10499293;28;20242;-85
2021/04/17 19:10:57;;;;;;;7.13;4.87;;;9.60;72.80;;;;;;10475196;28;20229;-85
2021/04/17 19:16:01;;;;;;;6.10;4.90;;;9.50;72.80;;;;;;10474705;28;20208;-84
2021/04/17 19:21:06;;;;;;;5.23;4.63;;;9.40;73.50;;;;;;10492089;28;20232;-84
2021/04/17 19:26:14;;;;;;;4.80;4.50;;;9.40;73.70;;;;;;10490098;28;20234;-85
2021/04/17 19:31:17;;;;;;;5.40;4.90;;;9.50;74.20;;;;;;10498224;28;20220;-84
2021/04/17 19:36:19;;;;;;;6.63;5.77;;;9.50;73.50;;;;;;10484645;28;20212;-84
2021/04/17 19:41:23;;;;;;;5.40;5.00;;;9.50;74.10;;;;;;10508158;28;20296;-85
2021/04/17 19:46:27;;;;;;;4.43;4.13;;;9.50;74.70;;;;;;10491769;28;20204;-84
2021/04/17 19:51:30;;;;;;;5.57;5.07;;;9.50;74.10;;;;;;10490758;28;20224;-85
2021/04/17 19:56:35;;;;;;;6.03;5.53;;;9.40;76.50;;;;;;10492843;28;20295;-84
2021/04/17 20:01:38;;;;;;;5.80;5.30;;;9.40;76.10;;;;;;10494003;28;20236;-84
2021/04/17 20:06:41;;;;;;;5.53;5.03;;;9.30;77.20;;;;;;10470931;28;20220;-84
2021/04/17 20:11:46;;;;;;;5.33;4.83;;;9.20;79.60;;;;;;10490397;28;20772;-84
2021/04/17 20:16:49;;;;;;;5.97;5.37;;;9.20;80.20;;;;;;10491537;28;20204;-83
2021/04/17 20:21:52;;;;;;;5.90;5.30;;;9.20;79.50;;;;;;10488453;28;20690;-83
2021/04/17 20:27:04;;;;;;;6.33;5.80;;;9.10;81.10;;;;;;10475533;28;20630;-85
2021/04/17 20:32:10;;;;;;;6.23;5.67;;;9.00;81.90;;;;;;10501169;28;20227;-86
2021/04/17 20:37:12;;;;;;;6.47;5.80;;;9.00;83.10;;;;;;10481974;28;20207;-85
2021/04/17 20:42:17;;;;;;;6.07;5.57;;;9.00;84.80;;;;;;10489108;28;20236;-84
2021/04/17 20:47:27;;;;;;;6.87;6.27;;;9.00;85.40;;;;;;10489991;28;20208;-84
2021/04/17 20:52:37;;;;;;;6.77;6.17;;;9.00;84.80;;;;;;10509636;28;20285;-86
2021/04/17 20:57:39;;;;;;;6.63;6.13;;;8.90;85.30;;;;;;10487969;28;20312;-83
2021/04/17 21:02:44;;;;;;;6.73;6.07;;;8.90;86.40;;;;;;10488611;28;20347;-84
2021/04/17 21:07:46;;;;;;;6.47;5.97;;;8.90;88.10;;;;;;10490292;28;20235;-85
2021/04/17 21:13:07;;;;;;;5.90;5.40;;;8.70;88.60;;;;;;10503958;28;20392;-84
2021/04/17 21:18:10;;;;;;;6.53;5.93;;;8.60;88.70;;;;;;10482414;28;20218;-84
2021/04/17 21:23:14;;;;;;;5.50;5.10;;;8.50;90.50;;;;;;10495078;28;20429;-84
2021/04/17 21:28:18;;;;;;;5.87;5.30;;;8.50;90.70;;;;;;10485971;28;20717;-84
2021/04/17 21:33:25;;;;;;;6.73;6.10;;;8.40;90.90;;;;;;10492459;28;20239;-84
2021/04/17 21:39:06;;;;;;;6.43;5.83;;;8.40;91.00;;;;;;10495232;28;20206;-84
2021/04/17 21:44:30;;;;;;;7.87;6.67;;;8.30;91.20;;;;;;10505262;28;20246;-84
2021/04/17 21:49:43;;;;;;;7.07;6.47;;;8.30;91.60;;;;;;10487733;28;20211;-85
2021/04/17 21:54:45;;;;;;;7.87;6.87;;;8.20;92.30;;;;;;10509656;28;20212;-84
2021/04/17 21:59:49;;;;;;;6.90;6.30;;;8.20;91.80;;;;;;10485945;28;20220;-84
2021/04/17 22:04:55;;;;;;;5.83;5.33;;;8.20;92.20;;;;;;10500809;28;20204;-84
2021/04/17 22:10:00;;;;;;;6.00;5.40;;;8.10;92.00;;;;;;10501581;28;20211;-84
2021/04/17 22:15:10;;;;;;;5.17;4.77;;;8.10;92.10;;;;;;10486598;28;20299;-84
2021/04/17 22:20:13;;;;;;;4.37;4.07;;;8.00;92.00;;;;;;10491417;28;20261;-83
2021/04/17 22:25:17;;;;;;;4.27;3.97;;;8.00;92.70;;;;;;10512807;28;20196;-84
2021/04/17 22:30:25;;;;;;;4.37;4.07;;;7.90;92.90;;;;;;10490248;28;20274;-82
2021/04/17 22:35:28;;;;;;;4.50;4.20;;;7.90;92.40;;;;;;10481016;28;20262;-83
2021/04/17 22:40:29;;;;;;;4.80;4.40;;;7.80;93.20;;;;;;10481774;28;20232;-84
2021/04/17 22:45:34;;;;;;;4.67;4.37;;;7.80;93.80;;;;;;10482299;28;20219;-83
2021/04/17 22:50:38;;;;;;;5.00;4.60;;;7.80;93.60;;;;;;10487844;28;20224;-85
2021/04/17 22:55:40;;;;;;;5.40;5.00;;;7.70;93.50;;;;;;10486613;28;20701;-84
2021/04/17 23:00:42;;;;;;;5.37;4.97;;;7.60;93.70;;;;;;10474618;28;20221;-85
2021/04/17 23:05:45;;;;;;;6.17;5.60;;;7.50;94.80;;;;;;10480178;28;20208;-84
2021/04/17 23:10:46;;;;;;;6.67;6.17;;;7.40;94.20;;;;;;10477670;28;20734;-84
2021/04/17 23:15:52;;;;;;;6.07;5.67;;;7.40;94.20;;;;;;10485236;28;20700;-84
2021/04/17 23:20:55;;;;;;;5.67;5.20;;;7.40;94.20;;;;;;10502540;28;20306;-84
2021/04/17 23:25:57;;;;;;;5.97;5.47;;;7.50;94.40;;;;;;10483149;28;20215;-84
2021/04/17 23:30:59;;;;;;;6.10;5.70;;;7.40;94.50;;;;;;10474396;28;20267;-84
2021/04/17 23:36:02;;;;;;;5.50;5.13;;;7.40;94.70;;;;;;10483292;28;20224;-84
2021/04/17 23:41:06;;;;;;;5.30;4.80;;;7.40;94.50;;;;;;10477718;28;20228;-86
2021/04/17 23:46:08;;;;;;;6.70;6.20;;;7.40;94.90;;;;;;10483816;28;20200;-83
2021/04/17 23:51:10;;;;;;;5.90;5.50;;;7.40;94.10;;;;;;10495919;28;20753;-84
2021/04/17 23:56:12;;;;;;;5.70;5.30;;;7.40;94.50;;;;;;10491815;28;20219;-85
